sensor_id;sensor_type;location;lat;lon;timestamp;P1;durP1;ratioP1;P2;durP2;ratioP2
49237;SDS011;35069;47.906;1.892;2023-03-01T00:01:11;7.38;;;5.90;;
49237;SDS011;35069;47.906;1.892;2023-03-01T00:03:39;6.55;;;5.30;;
49237;SDS011;35069;47.906;1.892;2023-03-01T00:06:05;9.25;;;5.97;;
49237;SDS011;35069;47.906;1.892;2023-03-01T00:08:31;9.27;;;6.20;;
49237;SDS011;35069;47.906;1.892;2023-03-01T00:11:05;8.02;;;6.10;;
49237;SDS011;35069;47.906;1.892;2023-03-01T00:13:44;7.50;;;5.53;;
49237;SDS011;35069;47.906;1.892;2023-03-01T00:16:30;7.15;;;5.97;;
49237;SDS011;35069;47.906;1.892;2023-03-01T00:18:58;8.23;;;6.05;;
49237;SDS011;35069;47.906;1.892;2023-03-01T00:21:24;6.45;;;5.45;;
49237;SDS011;35069;47.906;1.892;2023-03-01T00:23:51;9.68;;;6.07;;
49237;SDS011;35069;47.906;1.892;2023-03-01T00:26:17;8.45;;;5.43;;
49237;SDS011;35069;47.906;1.892;2023-03-01T00:28:44;7.70;;;6.10;;
49237;SDS011;35069;47.906;1.892;2023-03-01T00:31:14;7.45;;;6.03;;
49237;SDS011;35069;47.906;1.892;2023-03-01T00:33:42;8.07;;;6.22;;
49237;SDS011;35069;47.906;1.892;2023-03-01T00:36:08;12.32;;;6.13;;
49237;SDS011;35069;47.906;1.892;2023-03-01T00:38:36;7.93;;;5.95;;
49237;SDS011;35069;47.906;1.892;2023-03-01T00:41:03;10.93;;;6.63;;
49237;SDS011;35069;47.906;1.892;2023-03-01T00:43:30;10.77;;;6.28;;
49237;SDS011;35069;47.906;1.892;2023-03-01T00:46:00;5.85;;;5.28;;
49237;SDS011;35069;47.906;1.892;2023-03-01T00:48:26;10.68;;;6.28;;
49237;SDS011;35069;47.906;1.892;2023-03-01T00:50:52;10.60;;;5.97;;
49237;SDS011;35069;47.906;1.892;2023-03-01T00:53:17;9.18;;;5.57;;
49237;SDS011;35069;47.906;1.892;2023-03-01T00:55:43;10.07;;;6.05;;
49237;SDS011;35069;47.906;1.892;2023-03-01T00:58:08;10.85;;;6.47;;
49237;SDS011;35069;47.906;1.892;2023-03-01T01:00:34;9.20;;;6.20;;
49237;SDS011;35069;47.906;1.892;2023-03-01T01:02:59;8.50;;;5.72;;
49237;SDS011;35069;47.906;1.892;2023-03-01T01:05:25;9.73;;;5.82;;
49237;SDS011;35069;47.906;1.892;2023-03-01T01:07:51;6.82;;;5.70;;
49237;SDS011;35069;47.906;1.892;2023-03-01T01:10:16;8.52;;;6.07;;
49237;SDS011;35069;47.906;1.892;2023-03-01T01:12:43;7.00;;;5.55;;
49237;SDS011;35069;47.906;1.892;2023-03-01T01:15:10;6.40;;;5.43;;
49237;SDS011;35069;47.906;1.892;2023-03-01T01:17:38;10.60;;;6.55;;
49237;SDS011;35069;47.906;1.892;2023-03-01T01:20:03;9.75;;;6.65;;
49237;SDS011;35069;47.906;1.892;2023-03-01T01:22:29;8.00;;;5.53;;
49237;SDS011;35069;47.906;1.892;2023-03-01T01:24:55;7.30;;;5.72;;
49237;SDS011;35069;47.906;1.892;2023-03-01T01:27:20;9.55;;;6.60;;
49237;SDS011;35069;47.906;1.892;2023-03-01T01:29:46;8.35;;;6.63;;
49237;SDS011;35069;47.906;1.892;2023-03-01T01:32:12;8.82;;;5.70;;
49237;SDS011;35069;47.906;1.892;2023-03-01T01:34:37;7.95;;;6.50;;
49237;SDS011;35069;47.906;1.892;2023-03-01T01:37:03;7.78;;;6.45;;
49237;SDS011;35069;47.906;1.892;2023-03-01T01:39:32;9.38;;;6.70;;
49237;SDS011;35069;47.906;1.892;2023-03-01T01:41:59;10.10;;;6.53;;
49237;SDS011;35069;47.906;1.892;2023-03-01T01:44:26;8.40;;;6.63;;
49237;SDS011;35069;47.906;1.892;2023-03-01T01:49:25;8.10;;;6.20;;
49237;SDS011;35069;47.906;1.892;2023-03-01T01:52:09;7.18;;;6.20;;
49237;SDS011;35069;47.906;1.892;2023-03-01T01:54:44;8.13;;;5.43;;
49237;SDS011;35069;47.906;1.892;2023-03-01T01:57:20;8.43;;;5.28;;
49237;SDS011;35069;47.906;1.892;2023-03-01T01:59:51;8.88;;;5.70;;
49237;SDS011;35069;47.906;1.892;2023-03-01T02:02:20;8.60;;;6.10;;
49237;SDS011;35069;47.906;1.892;2023-03-01T02:04:47;10.52;;;5.72;;
49237;SDS011;35069;47.906;1.892;2023-03-01T02:07:18;7.85;;;5.20;;
49237;SDS011;35069;47.906;1.892;2023-03-01T02:09:47;8.05;;;5.47;;
49237;SDS011;35069;47.906;1.892;2023-03-01T02:12:15;10.23;;;6.53;;
49237;SDS011;35069;47.906;1.892;2023-03-01T02:14:43;7.00;;;5.45;;
49237;SDS011;35069;47.906;1.892;2023-03-01T02:17:09;6.38;;;5.57;;
49237;SDS011;35069;47.906;1.892;2023-03-01T02:25:04;8.75;;;5.82;;
49237;SDS011;35069;47.906;1.892;2023-03-01T02:30:33;6.82;;;5.55;;
49237;SDS011;35069;47.906;1.892;2023-03-01T02:32:59;7.95;;;6.05;;
49237;SDS011;35069;47.906;1.892;2023-03-01T02:35:31;7.55;;;5.47;;
49237;SDS011;35069;47.906;1.892;2023-03-01T02:38:03;7.45;;;6.63;;
49237;SDS011;35069;47.906;1.892;2023-03-01T02:40:31;7.85;;;6.78;;
49237;SDS011;35069;47.906;1.892;2023-03-01T02:42:59;8.38;;;5.97;;
49237;SDS011;35069;47.906;1.892;2023-03-01T02:45:25;7.35;;;5.55;;
49237;SDS011;35069;47.906;1.892;2023-03-01T02:47:55;7.80;;;5.78;;
49237;SDS011;35069;47.906;1.892;2023-03-01T02:50:37;8.02;;;5.97;;
49237;SDS011;35069;47.906;1.892;2023-03-01T02:53:33;12.05;;;6.10;;
49237;SDS011;35069;47.906;1.892;2023-03-01T02:56:04;8.93;;;5.75;;
49237;SDS011;35069;47.906;1.892;2023-03-01T02:58:30;11.70;;;6.22;;
49237;SDS011;35069;47.906;1.892;2023-03-01T03:00:56;8.88;;;6.10;;
49237;SDS011;35069;47.906;1.892;2023-03-01T03:03:21;8.38;;;6.45;;
49237;SDS011;35069;47.906;1.892;2023-03-01T03:05:47;8.40;;;6.50;;
49237;SDS011;35069;47.906;1.892;2023-03-01T03:08:13;10.32;;;7.28;;
49237;SDS011;35069;47.906;1.892;2023-03-01T03:10:41;8.02;;;5.93;;
49237;SDS011;35069;47.906;1.892;2023-03-01T03:13:12;8.38;;;6.05;;
49237;SDS011;35069;47.906;1.892;2023-03-01T03:15:39;7.13;;;5.80;;
49237;SDS011;35069;47.906;1.892;2023-03-01T03:18:10;8.18;;;6.53;;
49237;SDS011;35069;47.906;1.892;2023-03-01T03:20:38;9.20;;;6.10;;
49237;SDS011;35069;47.906;1.892;2023-03-01T03:23:06;7.25;;;5.75;;
49237;SDS011;35069;47.906;1.892;2023-03-01T03:25:32;11.18;;;5.90;;
49237;SDS011;35069;47.906;1.892;2023-03-01T03:27:57;9.25;;;6.22;;
49237;SDS011;35069;47.906;1.892;2023-03-01T03:30:24;11.85;;;6.10;;
49237;SDS011;35069;47.906;1.892;2023-03-01T03:32:52;13.13;;;6.43;;
49237;SDS011;35069;47.906;1.892;2023-03-01T03:35:21;10.68;;;6.38;;
49237;SDS011;35069;47.906;1.892;2023-03-01T03:37:49;7.60;;;5.47;;
49237;SDS011;35069;47.906;1.892;2023-03-01T03:43:08;7.32;;;5.78;;
49237;SDS011;35069;47.906;1.892;2023-03-01T03:45:35;6.90;;;5.60;;
49237;SDS011;35069;47.906;1.892;2023-03-01T03:48:02;8.88;;;5.72;;
49237;SDS011;35069;47.906;1.892;2023-03-01T03:50:29;8.82;;;5.93;;
49237;SDS011;35069;47.906;1.892;2023-03-01T03:52:55;11.68;;;6.18;;
49237;SDS011;35069;47.906;1.892;2023-03-01T03:55:21;7.70;;;6.30;;
49237;SDS011;35069;47.906;1.892;2023-03-01T03:57:47;8.50;;;6.28;;
49237;SDS011;35069;47.906;1.892;2023-03-01T04:00:19;8.98;;;5.60;;
49237;SDS011;35069;47.906;1.892;2023-03-01T04:02:46;7.88;;;5.38;;
49237;SDS011;35069;47.906;1.892;2023-03-01T04:05:15;11.68;;;6.03;;
49237;SDS011;35069;47.906;1.892;2023-03-01T04:07:42;7.25;;;5.15;;
49237;SDS011;35069;47.906;1.892;2023-03-01T04:10:12;9.63;;;5.68;;
49237;SDS011;35069;47.906;1.892;2023-03-01T04:12:42;18.27;;;8.20;;
49237;SDS011;35069;47.906;1.892;2023-03-01T04:15:08;10.20;;;6.97;;
49237;SDS011;35069;47.906;1.892;2023-03-01T04:17:44;9.13;;;6.32;;
49237;SDS011;35069;47.906;1.892;2023-03-01T04:20:12;8.57;;;5.90;;
49237;SDS011;35069;47.906;1.892;2023-03-01T04:22:42;9.32;;;5.97;;
49237;SDS011;35069;47.906;1.892;2023-03-01T04:25:11;7.93;;;5.97;;
49237;SDS011;35069;47.906;1.892;2023-03-01T04:27:39;9.18;;;6.15;;
49237;SDS011;35069;47.906;1.892;2023-03-01T04:30:06;9.00;;;6.50;;
49237;SDS011;35069;47.906;1.892;2023-03-01T04:32:32;10.52;;;6.32;;
49237;SDS011;35069;47.906;1.892;2023-03-01T04:34:58;11.77;;;6.10;;
49237;SDS011;35069;47.906;1.892;2023-03-01T04:37:24;7.22;;;5.50;;
49237;SDS011;35069;47.906;1.892;2023-03-01T04:39:50;8.20;;;5.97;;
49237;SDS011;35069;47.906;1.892;2023-03-01T04:42:16;8.18;;;6.00;;
49237;SDS011;35069;47.906;1.892;2023-03-01T04:44:44;10.50;;;5.78;;
49237;SDS011;35069;47.906;1.892;2023-03-01T04:47:11;8.65;;;5.88;;
49237;SDS011;35069;47.906;1.892;2023-03-01T04:49:37;9.80;;;5.65;;
49237;SDS011;35069;47.906;1.892;2023-03-01T04:52:03;10.35;;;5.57;;
49237;SDS011;35069;47.906;1.892;2023-03-01T04:54:32;5.95;;;5.30;;
49237;SDS011;35069;47.906;1.892;2023-03-01T04:56:59;11.00;;;6.40;;
49237;SDS011;35069;47.906;1.892;2023-03-01T04:59:25;11.80;;;7.68;;
49237;SDS011;35069;47.906;1.892;2023-03-01T05:01:51;7.13;;;6.15;;
49237;SDS011;35069;47.906;1.892;2023-03-01T05:04:20;8.60;;;6.22;;
49237;SDS011;35069;47.906;1.892;2023-03-01T05:06:46;7.72;;;6.13;;
49237;SDS011;35069;47.906;1.892;2023-03-01T05:09:12;10.48;;;6.53;;
49237;SDS011;35069;47.906;1.892;2023-03-01T05:11:37;9.23;;;5.90;;
49237;SDS011;35069;47.906;1.892;2023-03-01T05:14:03;9.40;;;5.85;;
49237;SDS011;35069;47.906;1.892;2023-03-01T05:16:30;9.68;;;7.32;;
49237;SDS011;35069;47.906;1.892;2023-03-01T05:18:56;9.25;;;5.88;;
49237;SDS011;35069;47.906;1.892;2023-03-01T05:21:23;8.18;;;6.18;;
49237;SDS011;35069;47.906;1.892;2023-03-01T05:23:49;11.63;;;6.53;;
49237;SDS011;35069;47.906;1.892;2023-03-01T05:26:16;10.85;;;6.35;;
49237;SDS011;35069;47.906;1.892;2023-03-01T05:28:42;9.40;;;6.50;;
49237;SDS011;35069;47.906;1.892;2023-03-01T05:31:08;9.73;;;6.78;;
49237;SDS011;35069;47.906;1.892;2023-03-01T05:33:38;11.38;;;6.65;;
49237;SDS011;35069;47.906;1.892;2023-03-01T05:36:05;10.13;;;6.35;;
49237;SDS011;35069;47.906;1.892;2023-03-01T05:38:32;10.10;;;6.95;;
49237;SDS011;35069;47.906;1.892;2023-03-01T05:40:58;10.65;;;6.88;;
49237;SDS011;35069;47.906;1.892;2023-03-01T05:43:24;9.93;;;6.97;;
49237;SDS011;35069;47.906;1.892;2023-03-01T05:45:50;9.48;;;6.72;;
49237;SDS011;35069;47.906;1.892;2023-03-01T05:48:16;11.30;;;6.65;;
49237;SDS011;35069;47.906;1.892;2023-03-01T05:50:44;9.48;;;6.70;;
49237;SDS011;35069;47.906;1.892;2023-03-01T05:53:11;8.82;;;6.15;;
49237;SDS011;35069;47.906;1.892;2023-03-01T05:55:37;10.20;;;7.00;;
49237;SDS011;35069;47.906;1.892;2023-03-01T05:58:04;9.45;;;6.55;;
49237;SDS011;35069;47.906;1.892;2023-03-01T06:00:32;8.40;;;5.95;;
49237;SDS011;35069;47.906;1.892;2023-03-01T06:02:59;10.50;;;6.88;;
49237;SDS011;35069;47.906;1.892;2023-03-01T06:05:25;14.25;;;7.38;;
49237;SDS011;35069;47.906;1.892;2023-03-01T06:07:51;12.68;;;6.55;;
49237;SDS011;35069;47.906;1.892;2023-03-01T06:10:18;9.15;;;6.78;;
49237;SDS011;35069;47.906;1.892;2023-03-01T06:12:45;10.15;;;6.05;;
49237;SDS011;35069;47.906;1.892;2023-03-01T06:15:12;13.80;;;7.05;;
49237;SDS011;35069;47.906;1.892;2023-03-01T06:17:42;8.27;;;6.38;;
49237;SDS011;35069;47.906;1.892;2023-03-01T06:20:12;12.13;;;7.18;;
49237;SDS011;35069;47.906;1.892;2023-03-01T06:22:43;11.65;;;6.72;;
49237;SDS011;35069;47.906;1.892;2023-03-01T06:25:09;11.32;;;6.68;;
49237;SDS011;35069;47.906;1.892;2023-03-01T06:27:39;13.35;;;8.15;;
49237;SDS011;35069;47.906;1.892;2023-03-01T06:30:06;13.13;;;7.65;;
49237;SDS011;35069;47.906;1.892;2023-03-01T06:32:32;14.82;;;7.63;;
49237;SDS011;35069;47.906;1.892;2023-03-01T06:34:58;8.75;;;6.90;;
49237;SDS011;35069;47.906;1.892;2023-03-01T06:37:24;10.48;;;7.68;;
49237;SDS011;35069;47.906;1.892;2023-03-01T06:39:50;13.75;;;8.38;;
49237;SDS011;35069;47.906;1.892;2023-03-01T06:42:16;14.30;;;9.38;;
49237;SDS011;35069;47.906;1.892;2023-03-01T06:44:43;13.35;;;7.63;;
49237;SDS011;35069;47.906;1.892;2023-03-01T06:47:10;12.07;;;7.88;;
49237;SDS011;35069;47.906;1.892;2023-03-01T06:49:36;13.93;;;8.02;;
49237;SDS011;35069;47.906;1.892;2023-03-01T06:52:02;9.18;;;6.70;;
49237;SDS011;35069;47.906;1.892;2023-03-01T06:54:28;13.73;;;7.15;;
49237;SDS011;35069;47.906;1.892;2023-03-01T06:56:53;13.15;;;8.55;;
49237;SDS011;35069;47.906;1.892;2023-03-01T06:59:19;14.40;;;8.75;;
49237;SDS011;35069;47.906;1.892;2023-03-01T07:01:44;13.60;;;7.90;;
49237;SDS011;35069;47.906;1.892;2023-03-01T07:04:11;10.23;;;7.75;;
49237;SDS011;35069;47.906;1.892;2023-03-01T07:06:37;10.73;;;7.72;;
49237;SDS011;35069;47.906;1.892;2023-03-01T07:09:03;13.15;;;7.20;;
49237;SDS011;35069;47.906;1.892;2023-03-01T07:11:28;11.77;;;7.28;;
49237;SDS011;35069;47.906;1.892;2023-03-01T07:13:54;11.90;;;8.15;;
49237;SDS011;35069;47.906;1.892;2023-03-01T07:16:20;12.80;;;7.10;;
49237;SDS011;35069;47.906;1.892;2023-03-01T07:18:46;14.05;;;7.32;;
49237;SDS011;35069;47.906;1.892;2023-03-01T07:21:15;10.90;;;7.57;;
49237;SDS011;35069;47.906;1.892;2023-03-01T07:23:41;18.33;;;7.97;;
49237;SDS011;35069;47.906;1.892;2023-03-01T07:26:07;8.93;;;7.43;;
49237;SDS011;35069;47.906;1.892;2023-03-01T07:28:33;12.80;;;7.18;;
49237;SDS011;35069;47.906;1.892;2023-03-01T07:31:04;11.00;;;7.25;;
49237;SDS011;35069;47.906;1.892;2023-03-01T07:33:30;12.65;;;7.70;;
49237;SDS011;35069;47.906;1.892;2023-03-01T07:35:59;12.43;;;8.07;;
49237;SDS011;35069;47.906;1.892;2023-03-01T07:38:27;9.35;;;7.20;;
49237;SDS011;35069;47.906;1.892;2023-03-01T07:40:53;12.13;;;7.63;;
49237;SDS011;35069;47.906;1.892;2023-03-01T07:43:23;12.60;;;8.82;;
49237;SDS011;35069;47.906;1.892;2023-03-01T07:45:49;14.60;;;8.70;;
49237;SDS011;35069;47.906;1.892;2023-03-01T07:48:15;10.38;;;7.55;;
49237;SDS011;35069;47.906;1.892;2023-03-01T07:50:41;13.38;;;8.25;;
49237;SDS011;35069;47.906;1.892;2023-03-01T07:53:06;13.93;;;7.85;;
49237;SDS011;35069;47.906;1.892;2023-03-01T07:55:32;13.27;;;8.00;;
49237;SDS011;35069;47.906;1.892;2023-03-01T07:57:57;11.35;;;7.47;;
49237;SDS011;35069;47.906;1.892;2023-03-01T08:00:23;13.70;;;8.68;;
49237;SDS011;35069;47.906;1.892;2023-03-01T08:02:49;11.65;;;8.40;;
49237;SDS011;35069;47.906;1.892;2023-03-01T08:05:15;11.90;;;8.10;;
49237;SDS011;35069;47.906;1.892;2023-03-01T08:07:41;10.40;;;7.32;;
49237;SDS011;35069;47.906;1.892;2023-03-01T08:10:06;7.50;;;6.63;;
49237;SDS011;35069;47.906;1.892;2023-03-01T08:12:33;8.77;;;7.88;;
49237;SDS011;35069;47.906;1.892;2023-03-01T08:14:58;10.90;;;7.47;;
49237;SDS011;35069;47.906;1.892;2023-03-01T08:17:24;10.88;;;7.72;;
49237;SDS011;35069;47.906;1.892;2023-03-01T08:19:50;11.52;;;8.35;;
49237;SDS011;35069;47.906;1.892;2023-03-01T08:22:15;11.70;;;7.82;;
49237;SDS011;35069;47.906;1.892;2023-03-01T08:24:41;10.93;;;7.40;;
49237;SDS011;35069;47.906;1.892;2023-03-01T08:27:07;12.98;;;8.43;;
49237;SDS011;35069;47.906;1.892;2023-03-01T08:29:33;15.75;;;8.13;;
49237;SDS011;35069;47.906;1.892;2023-03-01T08:31:59;11.25;;;7.47;;
49237;SDS011;35069;47.906;1.892;2023-03-01T08:34:25;14.15;;;8.70;;
49237;SDS011;35069;47.906;1.892;2023-03-01T08:36:51;11.32;;;8.02;;
49237;SDS011;35069;47.906;1.892;2023-03-01T08:39:17;11.52;;;8.15;;
49237;SDS011;35069;47.906;1.892;2023-03-01T08:41:44;18.98;;;9.98;;
49237;SDS011;35069;47.906;1.892;2023-03-01T08:44:10;13.85;;;8.32;;
49237;SDS011;35069;47.906;1.892;2023-03-01T08:46:39;15.10;;;9.32;;
49237;SDS011;35069;47.906;1.892;2023-03-01T08:49:11;15.30;;;8.52;;
49237;SDS011;35069;47.906;1.892;2023-03-01T08:51:42;10.10;;;7.35;;
49237;SDS011;35069;47.906;1.892;2023-03-01T08:54:10;12.95;;;7.85;;
49237;SDS011;35069;47.906;1.892;2023-03-01T08:56:41;13.38;;;7.97;;
49237;SDS011;35069;47.906;1.892;2023-03-01T08:59:07;10.48;;;7.72;;
49237;SDS011;35069;47.906;1.892;2023-03-01T09:01:33;15.90;;;9.07;;
49237;SDS011;35069;47.906;1.892;2023-03-01T09:03:58;12.38;;;9.40;;
49237;SDS011;35069;47.906;1.892;2023-03-01T09:06:24;12.95;;;8.25;;
49237;SDS011;35069;47.906;1.892;2023-03-01T09:08:50;46.38;;;13.02;;
49237;SDS011;35069;47.906;1.892;2023-03-01T09:11:17;12.85;;;8.65;;
49237;SDS011;35069;47.906;1.892;2023-03-01T09:13:45;12.13;;;9.13;;
49237;SDS011;35069;47.906;1.892;2023-03-01T09:16:13;10.45;;;8.23;;
49237;SDS011;35069;47.906;1.892;2023-03-01T09:18:41;14.88;;;9.30;;
49237;SDS011;35069;47.906;1.892;2023-03-01T09:21:09;11.70;;;8.50;;
49237;SDS011;35069;47.906;1.892;2023-03-01T09:23:37;26.05;;;10.40;;
49237;SDS011;35069;47.906;1.892;2023-03-01T09:26:04;13.20;;;7.85;;
49237;SDS011;35069;47.906;1.892;2023-03-01T09:28:34;10.43;;;7.88;;
49237;SDS011;35069;47.906;1.892;2023-03-01T09:31:01;12.25;;;8.07;;
49237;SDS011;35069;47.906;1.892;2023-03-01T09:33:28;13.55;;;8.95;;
49237;SDS011;35069;47.906;1.892;2023-03-01T09:36:02;10.52;;;8.77;;
49237;SDS011;35069;47.906;1.892;2023-03-01T09:38:30;11.00;;;8.02;;
49237;SDS011;35069;47.906;1.892;2023-03-01T09:40:56;15.13;;;8.95;;
49237;SDS011;35069;47.906;1.892;2023-03-01T09:43:37;10.25;;;7.65;;
49237;SDS011;35069;47.906;1.892;2023-03-01T09:46:08;11.65;;;8.25;;
49237;SDS011;35069;47.906;1.892;2023-03-01T09:48:38;14.73;;;8.38;;
49237;SDS011;35069;47.906;1.892;2023-03-01T09:51:19;12.05;;;8.25;;
49237;SDS011;35069;47.906;1.892;2023-03-01T09:53:51;9.88;;;8.00;;
49237;SDS011;35069;47.906;1.892;2023-03-01T09:56:20;11.75;;;8.55;;
49237;SDS011;35069;47.906;1.892;2023-03-01T09:58:58;10.52;;;8.80;;
49237;SDS011;35069;47.906;1.892;2023-03-01T10:01:34;10.80;;;8.68;;
49237;SDS011;35069;47.906;1.892;2023-03-01T10:06:51;9.70;;;8.10;;
49237;SDS011;35069;47.906;1.892;2023-03-01T10:09:43;10.07;;;7.95;;
49237;SDS011;35069;47.906;1.892;2023-03-01T10:12:11;10.98;;;8.70;;
49237;SDS011;35069;47.906;1.892;2023-03-01T10:14:43;10.85;;;8.85;;
49237;SDS011;35069;47.906;1.892;2023-03-01T10:19:52;12.50;;;8.57;;
49237;SDS011;35069;47.906;1.892;2023-03-01T10:24:49;12.33;;;8.67;;
49237;SDS011;35069;47.906;1.892;2023-03-01T10:27:23;10.00;;;8.80;;
49237;SDS011;35069;47.906;1.892;2023-03-01T10:32:38;9.50;;;8.50;;
49237;SDS011;35069;47.906;1.892;2023-03-01T10:35:24;12.00;;;9.05;;
49237;SDS011;35069;47.906;1.892;2023-03-01T10:38:11;11.23;;;7.75;;
49237;SDS011;35069;47.906;1.892;2023-03-01T10:40:58;9.65;;;8.52;;
49237;SDS011;35069;47.906;1.892;2023-03-01T10:43:32;10.15;;;8.75;;
49237;SDS011;35069;47.906;1.892;2023-03-01T10:46:33;9.00;;;8.05;;
49237;SDS011;35069;47.906;1.892;2023-03-01T10:49:10;11.10;;;8.63;;
49237;SDS011;35069;47.906;1.892;2023-03-01T10:51:37;12.25;;;8.48;;
49237;SDS011;35069;47.906;1.892;2023-03-01T10:54:06;8.52;;;7.65;;
49237;SDS011;35069;47.906;1.892;2023-03-01T10:56:51;10.82;;;8.32;;
49237;SDS011;35069;47.906;1.892;2023-03-01T10:59:27;19.17;;;9.07;;
49237;SDS011;35069;47.906;1.892;2023-03-01T11:07:22;8.82;;;7.85;;
49237;SDS011;35069;47.906;1.892;2023-03-01T11:09:47;12.93;;;9.30;;
49237;SDS011;35069;47.906;1.892;2023-03-01T11:12:13;16.30;;;9.48;;
49237;SDS011;35069;47.906;1.892;2023-03-01T11:14:46;11.02;;;9.10;;
49237;SDS011;35069;47.906;1.892;2023-03-01T11:17:21;13.60;;;9.15;;
49237;SDS011;35069;47.906;1.892;2023-03-01T11:20:00;11.18;;;8.52;;
49237;SDS011;35069;47.906;1.892;2023-03-01T11:22:26;10.80;;;8.57;;
49237;SDS011;35069;47.906;1.892;2023-03-01T11:24:53;11.65;;;8.65;;
49237;SDS011;35069;47.906;1.892;2023-03-01T11:35:29;10.98;;;8.68;;
49237;SDS011;35069;47.906;1.892;2023-03-01T11:40:32;10.73;;;8.68;;
49237;SDS011;35069;47.906;1.892;2023-03-01T11:43:23;11.73;;;9.15;;
49237;SDS011;35069;47.906;1.892;2023-03-01T12:11:08;10.50;;;9.00;;
49237;SDS011;35069;47.906;1.892;2023-03-01T12:19:15;11.75;;;10.55;;
49237;SDS011;35069;47.906;1.892;2023-03-01T12:30:00;11.88;;;9.43;;
49237;SDS011;35069;47.906;1.892;2023-03-01T12:43:51;13.20;;;10.38;;
49237;SDS011;35069;47.906;1.892;2023-03-01T12:49:33;12.60;;;9.50;;
49237;SDS011;35069;47.906;1.892;2023-03-01T12:55:00;11.63;;;8.95;;
49237;SDS011;35069;47.906;1.892;2023-03-01T12:57:34;12.45;;;9.43;;
49237;SDS011;35069;47.906;1.892;2023-03-01T13:08:44;12.70;;;9.77;;
49237;SDS011;35069;47.906;1.892;2023-03-01T13:11:20;15.43;;;10.32;;
49237;SDS011;35069;47.906;1.892;2023-03-01T13:13:48;13.38;;;10.38;;
49237;SDS011;35069;47.906;1.892;2023-03-01T13:19:27;12.75;;;10.55;;
49237;SDS011;35069;47.906;1.892;2023-03-01T13:21:48;17.65;;;10.98;;
49237;SDS011;35069;47.906;1.892;2023-03-01T13:29:32;16.17;;;11.38;;
49237;SDS011;35069;47.906;1.892;2023-03-01T13:32:28;17.75;;;10.70;;
49237;SDS011;35069;47.906;1.892;2023-03-01T13:35:02;16.05;;;10.93;;
49237;SDS011;35069;47.906;1.892;2023-03-01T13:37:33;15.57;;;11.05;;
49237;SDS011;35069;47.906;1.892;2023-03-01T13:40:02;16.27;;;11.13;;
49237;SDS011;35069;47.906;1.892;2023-03-01T13:42:52;16.75;;;11.45;;
49237;SDS011;35069;47.906;1.892;2023-03-01T13:47:56;19.05;;;11.63;;
49237;SDS011;35069;47.906;1.892;2023-03-01T13:50:32;14.07;;;11.38;;
49237;SDS011;35069;47.906;1.892;2023-03-01T13:53:03;13.02;;;11.32;;
49237;SDS011;35069;47.906;1.892;2023-03-01T14:00:47;17.75;;;10.98;;
49237;SDS011;35069;47.906;1.892;2023-03-01T14:03:21;16.05;;;10.85;;
49237;SDS011;35069;47.906;1.892;2023-03-01T14:08:31;17.85;;;11.32;;
49237;SDS011;35069;47.906;1.892;2023-03-01T14:13:42;15.82;;;10.93;;
49237;SDS011;35069;47.906;1.892;2023-03-01T14:19:14;12.00;;;9.85;;
49237;SDS011;35069;47.906;1.892;2023-03-01T14:21:58;14.32;;;11.25;;
49237;SDS011;35069;47.906;1.892;2023-03-01T14:24:50;17.52;;;11.98;;
49237;SDS011;35069;47.906;1.892;2023-03-01T14:27:19;16.30;;;11.70;;
49237;SDS011;35069;47.906;1.892;2023-03-01T14:29:58;16.58;;;12.02;;
49237;SDS011;35069;47.906;1.892;2023-03-01T14:32:29;21.10;;;11.50;;
49237;SDS011;35069;47.906;1.892;2023-03-01T14:34:57;17.50;;;12.18;;
49237;SDS011;35069;47.906;1.892;2023-03-01T14:40:00;23.45;;;12.45;;
49237;SDS011;35069;47.906;1.892;2023-03-01T14:42:33;19.88;;;12.73;;
49237;SDS011;35069;47.906;1.892;2023-03-01T14:45:01;18.42;;;12.48;;
49237;SDS011;35069;47.906;1.892;2023-03-01T14:47:33;15.57;;;12.23;;
49237;SDS011;35069;47.906;1.892;2023-03-01T14:52:59;18.15;;;11.10;;
49237;SDS011;35069;47.906;1.892;2023-03-01T14:55:36;14.32;;;10.50;;
49237;SDS011;35069;47.906;1.892;2023-03-01T14:58:09;20.75;;;11.80;;
49237;SDS011;35069;47.906;1.892;2023-03-01T15:00:38;15.68;;;12.05;;
49237;SDS011;35069;47.906;1.892;2023-03-01T15:03:20;21.98;;;12.77;;
49237;SDS011;35069;47.906;1.892;2023-03-01T15:05:51;20.48;;;12.68;;
49237;SDS011;35069;47.906;1.892;2023-03-01T15:08:22;16.20;;;12.40;;
49237;SDS011;35069;47.906;1.892;2023-03-01T15:11:00;17.48;;;13.25;;
49237;SDS011;35069;47.906;1.892;2023-03-01T15:13:41;17.27;;;12.55;;
49237;SDS011;35069;47.906;1.892;2023-03-01T15:16:11;18.63;;;13.20;;
49237;SDS011;35069;47.906;1.892;2023-03-01T15:18:43;21.00;;;12.88;;
49237;SDS011;35069;47.906;1.892;2023-03-01T15:21:23;18.10;;;12.38;;
49237;SDS011;35069;47.906;1.892;2023-03-01T15:24:15;17.45;;;11.95;;
49237;SDS011;35069;47.906;1.892;2023-03-01T15:26:46;17.67;;;11.68;;
49237;SDS011;35069;47.906;1.892;2023-03-01T15:29:20;17.40;;;13.30;;
49237;SDS011;35069;47.906;1.892;2023-03-01T15:32:24;15.82;;;12.25;;
49237;SDS011;35069;47.906;1.892;2023-03-01T15:34:50;14.18;;;11.18;;
49237;SDS011;35069;47.906;1.892;2023-03-01T15:40:27;15.68;;;12.18;;
49237;SDS011;35069;47.906;1.892;2023-03-01T15:43:00;17.05;;;11.63;;
49237;SDS011;35069;47.906;1.892;2023-03-01T15:45:27;19.17;;;11.82;;
49237;SDS011;35069;47.906;1.892;2023-03-01T15:50:33;17.40;;;12.47;;
49237;SDS011;35069;47.906;1.892;2023-03-01T15:53:03;17.70;;;12.68;;
49237;SDS011;35069;47.906;1.892;2023-03-01T15:55:32;19.58;;;12.68;;
49237;SDS011;35069;47.906;1.892;2023-03-01T16:00:30;17.77;;;13.13;;
49237;SDS011;35069;47.906;1.892;2023-03-01T16:02:55;15.55;;;11.27;;
49237;SDS011;35069;47.906;1.892;2023-03-01T16:05:23;17.48;;;12.13;;
49237;SDS011;35069;47.906;1.892;2023-03-01T16:07:48;20.08;;;11.52;;
49237;SDS011;35069;47.906;1.892;2023-03-01T16:10:15;19.55;;;12.48;;
49237;SDS011;35069;47.906;1.892;2023-03-01T16:12:41;15.77;;;11.45;;
49237;SDS011;35069;47.906;1.892;2023-03-01T16:15:23;19.48;;;13.02;;
49237;SDS011;35069;47.906;1.892;2023-03-01T16:17:49;16.95;;;12.52;;
49237;SDS011;35069;47.906;1.892;2023-03-01T16:20:15;18.13;;;12.13;;
49237;SDS011;35069;47.906;1.892;2023-03-01T16:22:42;18.60;;;12.30;;
49237;SDS011;35069;47.906;1.892;2023-03-01T16:25:09;19.38;;;12.90;;
49237;SDS011;35069;47.906;1.892;2023-03-01T16:27:43;16.48;;;13.15;;
49237;SDS011;35069;47.906;1.892;2023-03-01T16:30:17;17.67;;;12.50;;
49237;SDS011;35069;47.906;1.892;2023-03-01T16:32:45;19.40;;;13.15;;
49237;SDS011;35069;47.906;1.892;2023-03-01T16:35:12;18.08;;;12.70;;
49237;SDS011;35069;47.906;1.892;2023-03-01T16:37:39;18.60;;;13.57;;
49237;SDS011;35069;47.906;1.892;2023-03-01T16:40:06;17.92;;;13.23;;
49237;SDS011;35069;47.906;1.892;2023-03-01T16:42:40;19.20;;;12.27;;
49237;SDS011;35069;47.906;1.892;2023-03-01T16:45:07;18.02;;;12.90;;
49237;SDS011;35069;47.906;1.892;2023-03-01T16:47:33;19.90;;;13.02;;
49237;SDS011;35069;47.906;1.892;2023-03-01T16:49:59;23.35;;;14.43;;
49237;SDS011;35069;47.906;1.892;2023-03-01T16:52:25;22.73;;;15.07;;
49237;SDS011;35069;47.906;1.892;2023-03-01T16:54:50;20.88;;;14.10;;
49237;SDS011;35069;47.906;1.892;2023-03-01T16:57:16;23.52;;;14.00;;
49237;SDS011;35069;47.906;1.892;2023-03-01T16:59:42;18.17;;;13.82;;
49237;SDS011;35069;47.906;1.892;2023-03-01T17:02:09;21.50;;;14.05;;
49237;SDS011;35069;47.906;1.892;2023-03-01T17:04:37;22.42;;;14.38;;
49237;SDS011;35069;47.906;1.892;2023-03-01T17:07:03;17.98;;;14.07;;
49237;SDS011;35069;47.906;1.892;2023-03-01T17:09:37;20.52;;;13.52;;
49237;SDS011;35069;47.906;1.892;2023-03-01T17:12:03;19.10;;;14.25;;